Airfield :
LOGIN :

Register | Disclaimer

   EN    FR    IT 

 










Legend :    VFR   Marginal VFR   IFR   Intensive IFR   Very Intensive IFR
Visi :
Ceiling :
>= 8 km
>= 3000ft
5 to 8 km
1000 to 3000 ft
1500m to 5 km
500 to 1000 ft
800 to 1500m
200 to 500 ft
< 800m
< 200 ft
Symbols :   Thunderstorms  Fog  Heavy snow  Heavy precipitations  Wind > 20 kt
SIGMETs :     Misc.  Thunderstorms  Icing  Turbulence  Mountain Waves  Volcanic Ashes







- Airport Elevation : 13 ft
- IATA code : CAG


LIEE - Cagliari Elmas

CURRENT METAR :
  • 260820Z 33009KT 5000 RA FEW005 SCT010 OVC035 15/14 Q1009

EXPIRED METARs :
  • 260750Z 33009KT 8000 -RA FEW005 SCT010 BKN035 15/14 Q1009
  • 260720Z 33009KT 8000 -RA FEW005 SCT010 BKN035 15/14 Q1009
  • 260650Z 32008KT 5000 -RA FEW004 SCT010 BKN035 15/14 Q1009
  • 260620Z 32008KT 8000 -RA SCT010 BKN030 15/14 Q1009
  • 260550Z 32007KT 8000 -RA SCT010 BKN030 15/14 Q1009

TAF TAF LIEE
Valid from the 26 at 06:00 until the 27 at 06:00 UTC


260500Z 2606/2706 34012KT 7000 RA SCT018 BKN040
TEMPO 2606/2612 3000 TSRA
No reported NOTAMs for that airfield.
1 SIGMET reported for the Roma FIR (LIRR) :
 
Severe turbulence
LIRR SIGMET 1 VALID 260740/260940 LIIB
LIRR ROMA FIR SEV TURB FCST WI N3959 E00858 - N3838 E00849 - N3739 E01107 - N4328 E01317 - N4154 E00945 - N4116 E00946 - N3959 E00858 FL240/360 STNR NC=



MET'MAP, your aeronautical weather chart ! - Copyright ORBIFLY December 2007 - Disclaimer

ORBIFLY MET'MAP TEAM :

Programming & Development : Alexandra Zaïnal
Concept & Development : Baudouin d'Aumeries
Co-Development & Prog : Marc-Olivier Méhu
Technical & hardware support : Manuel Goepfert

Contact : metmap@orbifly.com




SOURCES & CREDITS :

   NOAA